sensor_id;sensor_type;location;lat;lon;timestamp;pressure;altitude;pressure_sealevel;temperature;humidity
80892;BME280;70343;51.530;5.050;2023-12-20T00:02:16;101639.72;;;5.62;100.00
80892;BME280;70343;51.530;5.050;2023-12-20T00:04:42;101636.47;;;5.60;100.00
80892;BME280;70343;51.530;5.050;2023-12-20T00:07:07;101644.34;;;5.58;100.00
80892;BME280;70343;51.530;5.050;2023-12-20T00:09:33;101646.38;;;5.55;100.00
80892;BME280;70343;51.530;5.050;2023-12-20T00:11:58;101651.00;;;5.51;100.00
80892;BME280;70343;51.530;5.050;2023-12-20T00:14:24;101638.09;;;5.51;100.00
80892;BME280;70343;51.530;5.050;2023-12-20T00:16:49;101642.97;;;5.44;100.00
80892;BME280;70343;51.530;5.050;2023-12-20T00:19:15;101644.47;;;5.47;100.00
80892;BME280;70343;51.530;5.050;2023-12-20T00:21:40;101630.88;;;5.45;100.00
80892;BME280;70343;51.530;5.050;2023-12-20T00:24:06;101625.84;;;5.43;100.00
80892;BME280;70343;51.530;5.050;2023-12-20T00:26:32;101633.84;;;5.40;100.00
80892;BME280;70343;51.530;5.050;2023-12-20T00:28:57;101644.47;;;5.37;100.00
80892;BME280;70343;51.530;5.050;2023-12-20T00:31:22;101643.78;;;5.35;100.00
80892;BME280;70343;51.530;5.050;2023-12-20T00:33:48;101640.00;;;5.39;100.00
80892;BME280;70343;51.530;5.050;2023-12-20T00:36:14;101632.09;;;5.41;100.00
80892;BME280;70343;51.530;5.050;2023-12-20T00:38:39;101631.25;;;5.40;100.00
80892;BME280;70343;51.530;5.050;2023-12-20T00:41:04;101627.44;;;5.44;100.00
80892;BME280;70343;51.530;5.050;2023-12-20T00:43:30;101632.63;;;5.44;100.00
80892;BME280;70343;51.530;5.050;2023-12-20T00:45:55;101625.41;;;5.38;100.00
80892;BME280;70343;51.530;5.050;2023-12-20T00:48:21;101626.91;;;5.31;100.00
80892;BME280;70343;51.530;5.050;2023-12-20T00:50:47;101620.22;;;5.29;100.00
80892;BME280;70343;51.530;5.050;2023-12-20T00:53:12;101628.28;;;5.26;100.00
80892;BME280;70343;51.530;5.050;2023-12-20T00:55:37;101622.28;;;5.25;100.00
80892;BME280;70343;51.530;5.050;2023-12-20T00:58:03;101623.34;;;5.23;100.00
80892;BME280;70343;51.530;5.050;2023-12-20T01:00:29;101619.44;;;5.28;100.00
80892;BME280;70343;51.530;5.050;2023-12-20T01:02:54;101620.38;;;5.27;100.00
80892;BME280;70343;51.530;5.050;2023-12-20T01:05:20;101621.75;;;5.31;100.00
80892;BME280;70343;51.530;5.050;2023-12-20T01:07:48;101617.09;;;5.35;100.00
80892;BME280;70343;51.530;5.050;2023-12-20T01:10:14;101607.84;;;5.32;100.00
80892;BME280;70343;51.530;5.050;2023-12-20T01:12:40;101617.53;;;5.30;100.00
80892;BME280;70343;51.530;5.050;2023-12-20T01:15:05;101616.84;;;5.28;100.00
80892;BME280;70343;51.530;5.050;2023-12-20T01:17:31;101623.94;;;5.26;100.00
80892;BME280;70343;51.530;5.050;2023-12-20T01:19:56;101629.09;;;5.26;100.00
80892;BME280;70343;51.530;5.050;2023-12-20T01:22:23;101632.91;;;5.22;100.00
80892;BME280;70343;51.530;5.050;2023-12-20T01:24:49;101632.09;;;5.22;100.00
80892;BME280;70343;51.530;5.050;2023-12-20T01:27:14;101636.72;;;5.18;100.00
80892;BME280;70343;51.530;5.050;2023-12-20T01:29:40;101630.72;;;5.18;100.00
80892;BME280;70343;51.530;5.050;2023-12-20T01:32:05;101639.97;;;5.20;100.00
80892;BME280;70343;51.530;5.050;2023-12-20T01:34:31;101643.63;;;5.18;100.00
80892;BME280;70343;51.530;5.050;2023-12-20T01:36:56;101637.25;;;5.22;100.00
80892;BME280;70343;51.530;5.050;2023-12-20T01:39:22;101635.59;;;5.21;100.00
80892;BME280;70343;51.530;5.050;2023-12-20T01:41:48;101631.53;;;5.18;100.00
80892;BME280;70343;51.530;5.050;2023-12-20T01:44:14;101637.66;;;5.17;100.00
80892;BME280;70343;51.530;5.050;2023-12-20T01:46:39;101631.66;;;5.17;100.00
80892;BME280;70343;51.530;5.050;2023-12-20T01:49:05;101632.06;;;5.12;100.00
80892;BME280;70343;51.530;5.050;2023-12-20T01:51:31;101633.16;;;5.10;100.00
80892;BME280;70343;51.530;5.050;2023-12-20T01:53:59;101636.56;;;5.10;100.00
80892;BME280;70343;51.530;5.050;2023-12-20T01:56:28;101625.00;;;5.14;100.00
80892;BME280;70343;51.530;5.050;2023-12-20T01:58:54;101628.94;;;5.18;100.00
80892;BME280;70343;51.530;5.050;2023-12-20T02:01:21;101620.66;;;5.24;100.00
80892;BME280;70343;51.530;5.050;2023-12-20T02:03:46;101630.72;;;5.27;100.00
80892;BME280;70343;51.530;5.050;2023-12-20T02:06:12;101627.31;;;5.27;100.00
80892;BME280;70343;51.530;5.050;2023-12-20T02:08:38;101645.16;;;5.30;100.00
80892;BME280;70343;51.530;5.050;2023-12-20T02:11:04;101634.66;;;5.31;100.00
80892;BME280;70343;51.530;5.050;2023-12-20T02:13:30;101625.28;;;5.30;100.00
80892;BME280;70343;51.530;5.050;2023-12-20T02:15:56;101636.19;;;5.24;100.00
80892;BME280;70343;51.530;5.050;2023-12-20T02:18:21;101632.22;;;5.20;100.00
80892;BME280;70343;51.530;5.050;2023-12-20T02:20:47;101627.16;;;5.19;100.00
80892;BME280;70343;51.530;5.050;2023-12-20T02:23:12;101628.81;;;5.20;100.00
80892;BME280;70343;51.530;5.050;2023-12-20T02:25:38;101638.31;;;5.19;100.00
80892;BME280;70343;51.530;5.050;2023-12-20T02:28:04;101635.75;;;5.19;100.00
80892;BME280;70343;51.530;5.050;2023-12-20T02:30:30;101641.88;;;5.18;100.00
80892;BME280;70343;51.530;5.050;2023-12-20T02:32:56;101640.91;;;5.19;100.00
80892;BME280;70343;51.530;5.050;2023-12-20T02:35:21;101638.31;;;5.19;100.00
80892;BME280;70343;51.530;5.050;2023-12-20T02:37:47;101639.16;;;5.20;100.00
80892;BME280;70343;51.530;5.050;2023-12-20T02:40:12;101624.72;;;5.17;100.00
80892;BME280;70343;51.530;5.050;2023-12-20T02:42:38;101630.72;;;5.18;100.00
80892;BME280;70343;51.530;5.050;2023-12-20T02:45:04;101626.63;;;5.15;100.00
80892;BME280;70343;51.530;5.050;2023-12-20T02:47:29;101622.13;;;5.17;100.00
80892;BME280;70343;51.530;5.050;2023-12-20T02:49:55;101629.88;;;5.17;100.00
80892;BME280;70343;51.530;5.050;2023-12-20T02:52:24;101623.91;;;5.17;100.00
80892;BME280;70343;51.530;5.050;2023-12-20T02:54:50;101626.63;;;5.15;100.00
80892;BME280;70343;51.530;5.050;2023-12-20T02:57:15;101615.59;;;5.13;100.00
80892;BME280;70343;51.530;5.050;2023-12-20T02:59:41;101624.03;;;5.15;100.00
80892;BME280;70343;51.530;5.050;2023-12-20T03:02:07;101629.88;;;5.17;100.00
80892;BME280;70343;51.530;5.050;2023-12-20T03:04:32;101621.47;;;5.25;100.00
80892;BME280;70343;51.530;5.050;2023-12-20T03:06:57;101622.81;;;5.29;100.00
80892;BME280;70343;51.530;5.050;2023-12-20T03:09:23;101625.41;;;5.29;100.00
80892;BME280;70343;51.530;5.050;2023-12-20T03:11:48;101617.41;;;5.32;100.00
80892;BME280;70343;51.530;5.050;2023-12-20T03:14:14;101612.75;;;5.35;100.00
80892;BME280;70343;51.530;5.050;2023-12-20T03:16:39;101611.00;;;5.36;100.00
80892;BME280;70343;51.530;5.050;2023-12-20T03:19:05;101605.00;;;5.35;100.00
80892;BME280;70343;51.530;5.050;2023-12-20T03:21:30;101611.69;;;5.38;100.00
80892;BME280;70343;51.530;5.050;2023-12-20T03:23:56;101606.38;;;5.39;100.00
80892;BME280;70343;51.530;5.050;2023-12-20T03:26:21;101592.63;;;5.39;100.00
80892;BME280;70343;51.530;5.050;2023-12-20T03:28:48;101599.97;;;5.43;100.00
80892;BME280;70343;51.530;5.050;2023-12-20T03:31:14;101602.13;;;5.48;100.00
80892;BME280;70343;51.530;5.050;2023-12-20T03:33:39;101596.84;;;5.50;100.00
80892;BME280;70343;51.530;5.050;2023-12-20T03:36:05;101596.56;;;5.53;100.00
80892;BME280;70343;51.530;5.050;2023-12-20T03:38:31;101597.75;;;5.58;100.00
80892;BME280;70343;51.530;5.050;2023-12-20T03:40:56;101596.38;;;5.64;100.00
80892;BME280;70343;51.530;5.050;2023-12-20T03:43:22;101587.69;;;5.65;100.00
80892;BME280;70343;51.530;5.050;2023-12-20T03:45:47;101582.53;;;5.65;100.00
80892;BME280;70343;51.530;5.050;2023-12-20T03:48:13;101585.09;;;5.65;100.00
80892;BME280;70343;51.530;5.050;2023-12-20T03:50:38;101594.75;;;5.72;100.00
80892;BME280;70343;51.530;5.050;2023-12-20T03:53:04;101593.41;;;5.68;100.00
80892;BME280;70343;51.530;5.050;2023-12-20T03:55:29;101597.50;;;5.71;100.00
80892;BME280;70343;51.530;5.050;2023-12-20T03:57:55;101595.84;;;5.70;100.00
80892;BME280;70343;51.530;5.050;2023-12-20T04:00:21;101605.25;;;5.71;100.00
80892;BME280;70343;51.530;5.050;2023-12-20T04:02:46;101602.38;;;5.74;100.00
80892;BME280;70343;51.530;5.050;2023-12-20T04:05:12;101598.84;;;5.75;100.00
80892;BME280;70343;51.530;5.050;2023-12-20T04:07:37;101594.63;;;5.74;100.00
80892;BME280;70343;51.530;5.050;2023-12-20T04:10:04;101603.19;;;5.74;100.00
80892;BME280;70343;51.530;5.050;2023-12-20T04:12:30;101594.50;;;5.75;100.00
80892;BME280;70343;51.530;5.050;2023-12-20T04:14:56;101603.88;;;5.76;100.00
80892;BME280;70343;51.530;5.050;2023-12-20T04:17:22;101596.94;;;5.77;100.00
80892;BME280;70343;51.530;5.050;2023-12-20T04:19:51;101597.88;;;5.76;100.00
80892;BME280;70343;51.530;5.050;2023-12-20T04:22:19;101601.16;;;5.78;100.00
80892;BME280;70343;51.530;5.050;2023-12-20T04:24:45;101607.00;;;5.80;100.00
80892;BME280;70343;51.530;5.050;2023-12-20T04:27:10;101610.56;;;5.79;100.00
80892;BME280;70343;51.530;5.050;2023-12-20T04:29:36;101605.38;;;5.79;100.00
80892;BME280;70343;51.530;5.050;2023-12-20T04:32:02;101612.47;;;5.77;100.00
80892;BME280;70343;51.530;5.050;2023-12-20T04:34:27;101608.13;;;5.77;100.00
80892;BME280;70343;51.530;5.050;2023-12-20T04:36:53;101609.19;;;5.75;100.00
80892;BME280;70343;51.530;5.050;2023-12-20T04:39:19;101610.56;;;5.69;100.00
80892;BME280;70343;51.530;5.050;2023-12-20T04:41:44;101610.16;;;5.64;100.00
80892;BME280;70343;51.530;5.050;2023-12-20T04:44:09;101612.19;;;5.61;100.00
80892;BME280;70343;51.530;5.050;2023-12-20T04:46:35;101624.47;;;5.59;100.00
80892;BME280;70343;51.530;5.050;2023-12-20T04:49:01;101620.38;;;5.56;100.00
80892;BME280;70343;51.530;5.050;2023-12-20T04:51:27;101612.75;;;5.55;100.00
80892;BME280;70343;51.530;5.050;2023-12-20T04:53:52;101609.47;;;5.53;100.00
80892;BME280;70343;51.530;5.050;2023-12-20T04:56:18;101623.38;;;5.52;100.00
80892;BME280;70343;51.530;5.050;2023-12-20T04:58:43;101604.06;;;5.46;100.00
80892;BME280;70343;51.530;5.050;2023-12-20T05:01:09;101599.53;;;5.38;100.00
80892;BME280;70343;51.530;5.050;2023-12-20T05:03:35;101598.31;;;5.33;100.00
80892;BME280;70343;51.530;5.050;2023-12-20T05:06:01;101597.09;;;5.27;100.00
80892;BME280;70343;51.530;5.050;2023-12-20T05:08:26;101584.47;;;5.24;100.00
80892;BME280;70343;51.530;5.050;2023-12-20T05:10:55;101596.84;;;5.30;100.00
80892;BME280;70343;51.530;5.050;2023-12-20T05:13:21;101581.44;;;5.29;100.00
80892;BME280;70343;51.530;5.050;2023-12-20T05:15:46;101578.31;;;5.25;100.00
80892;BME280;70343;51.530;5.050;2023-12-20T05:18:12;101578.31;;;5.25;100.00
80892;BME280;70343;51.530;5.050;2023-12-20T05:20:38;101575.75;;;5.16;100.00
80892;BME280;70343;51.530;5.050;2023-12-20T05:23:03;101578.88;;;5.10;100.00
80892;BME280;70343;51.530;5.050;2023-12-20T05:25:29;101576.28;;;5.10;100.00
80892;BME280;70343;51.530;5.050;2023-12-20T05:27:54;101582.13;;;5.02;100.00
80892;BME280;70343;51.530;5.050;2023-12-20T05:30:21;101592.06;;;4.97;100.00
80892;BME280;70343;51.530;5.050;2023-12-20T05:32:46;101598.56;;;4.92;100.00
80892;BME280;70343;51.530;5.050;2023-12-20T05:35:12;101599.66;;;4.89;100.00
80892;BME280;70343;51.530;5.050;2023-12-20T05:37:38;101593.13;;;4.85;100.00
80892;BME280;70343;51.530;5.050;2023-12-20T05:40:03;101589.84;;;4.83;100.00
80892;BME280;70343;51.530;5.050;2023-12-20T05:42:29;101581.66;;;4.78;100.00
80892;BME280;70343;51.530;5.050;2023-12-20T05:44:55;101586.84;;;4.78;100.00
80892;BME280;70343;51.530;5.050;2023-12-20T05:47:20;101590.63;;;4.74;100.00
80892;BME280;70343;51.530;5.050;2023-12-20T05:49:46;101589.44;;;4.78;100.00
80892;BME280;70343;51.530;5.050;2023-12-20T05:52:11;101586.28;;;4.75;100.00
80892;BME280;70343;51.530;5.050;2023-12-20T05:54:37;101593.91;;;4.76;100.00
80892;BME280;70343;51.530;5.050;2023-12-20T05:57:02;101595.81;;;4.74;100.00
80892;BME280;70343;51.530;5.050;2023-12-20T05:59:28;101606.03;;;4.76;100.00
80892;BME280;70343;51.530;5.050;2023-12-20T06:01:53;101598.38;;;4.74;100.00
80892;BME280;70343;51.530;5.050;2023-12-20T06:04:19;101611.06;;;4.77;100.00
80892;BME280;70343;51.530;5.050;2023-12-20T06:06:44;101601.41;;;4.79;100.00
80892;BME280;70343;51.530;5.050;2023-12-20T06:09:10;101598.81;;;4.79;100.00
80892;BME280;70343;51.530;5.050;2023-12-20T06:11:36;101599.06;;;4.76;100.00
80892;BME280;70343;51.530;5.050;2023-12-20T06:14:01;101599.66;;;4.80;100.00
80892;BME280;70343;51.530;5.050;2023-12-20T06:16:27;101592.97;;;4.77;100.00
80892;BME280;70343;51.530;5.050;2023-12-20T06:18:53;101593.38;;;4.82;100.00
80892;BME280;70343;51.530;5.050;2023-12-20T06:21:18;101598.69;;;4.81;100.00
80892;BME280;70343;51.530;5.050;2023-12-20T06:23:44;101595.03;;;4.83;100.00
80892;BME280;70343;51.530;5.050;2023-12-20T06:26:09;101594.34;;;4.81;100.00
80892;BME280;70343;51.530;5.050;2023-12-20T06:28:35;101599.50;;;4.81;100.00
80892;BME280;70343;51.530;5.050;2023-12-20T06:31:00;101593.66;;;4.79;100.00
80892;BME280;70343;51.530;5.050;2023-12-20T06:33:26;101598.81;;;4.79;100.00
80892;BME280;70343;51.530;5.050;2023-12-20T06:35:52;101597.16;;;4.78;100.00
80892;BME280;70343;51.530;5.050;2023-12-20T06:38:18;101592.69;;;4.80;100.00
80892;BME280;70343;51.530;5.050;2023-12-20T06:40:44;101593.25;;;4.84;100.00
80892;BME280;70343;51.530;5.050;2023-12-20T06:43:09;101588.22;;;4.82;100.00
80892;BME280;70343;51.530;5.050;2023-12-20T06:45:35;101589.84;;;4.83;100.00
80892;BME280;70343;51.530;5.050;2023-12-20T06:48:00;101585.78;;;4.81;100.00
80892;BME280;70343;51.530;5.050;2023-12-20T06:50:26;101587.53;;;4.80;100.00
80892;BME280;70343;51.530;5.050;2023-12-20T06:52:52;101583.56;;;4.76;100.00
80892;BME280;70343;51.530;5.050;2023-12-20T06:55:18;101581.66;;;4.78;100.00
80892;BME280;70343;51.530;5.050;2023-12-20T06:57:44;101590.25;;;4.79;100.00
80892;BME280;70343;51.530;5.050;2023-12-20T07:00:11;101592.28;;;4.75;100.00
80892;BME280;70343;51.530;5.050;2023-12-20T07:02:37;101587.41;;;4.82;100.00
80892;BME280;70343;51.530;5.050;2023-12-20T07:05:03;101590.25;;;4.79;100.00
80892;BME280;70343;51.530;5.050;2023-12-20T07:07:29;101585.47;;;4.74;100.00
80892;BME280;70343;51.530;5.050;2023-12-20T07:09:55;101580.59;;;4.71;100.00
80892;BME280;70343;51.530;5.050;2023-12-20T07:12:20;101581.50;;;4.70;100.00
80892;BME280;70343;51.530;5.050;2023-12-20T07:14:46;101589.56;;;4.77;100.00
80892;BME280;70343;51.530;5.050;2023-12-20T07:17:12;101591.22;;;4.87;100.00
80892;BME280;70343;51.530;5.050;2023-12-20T07:19:39;101593.97;;;4.95;100.00
80892;BME280;70343;51.530;5.050;2023-12-20T07:22:08;101589.75;;;5.04;100.00
80892;BME280;70343;51.530;5.050;2023-12-20T07:24:33;101599.25;;;5.03;100.00
80892;BME280;70343;51.530;5.050;2023-12-20T07:27:02;101593.56;;;5.09;100.00
80892;BME280;70343;51.530;5.050;2023-12-20T07:29:27;101587.44;;;5.10;100.00
80892;BME280;70343;51.530;5.050;2023-12-20T07:31:53;101598.31;;;5.14;100.00
80892;BME280;70343;51.530;5.050;2023-12-20T07:34:22;101596.97;;;5.19;100.00
80892;BME280;70343;51.530;5.050;2023-12-20T07:36:47;101593.00;;;5.15;100.00
80892;BME280;70343;51.530;5.050;2023-12-20T07:39:14;101609.88;;;5.19;100.00
80892;BME280;70343;51.530;5.050;2023-12-20T07:41:39;101595.59;;;5.15;100.00
80892;BME280;70343;51.530;5.050;2023-12-20T07:44:05;101592.34;;;5.13;100.00
80892;BME280;70343;51.530;5.050;2023-12-20T07:46:30;101585.41;;;5.23;100.00
80892;BME280;70343;51.530;5.050;2023-12-20T07:48:56;101589.22;;;5.19;100.00
80892;BME280;70343;51.530;5.050;2023-12-20T07:51:21;101588.81;;;5.14;100.00
80892;BME280;70343;51.530;5.050;2023-12-20T07:53:47;101576.81;;;5.13;100.00
80892;BME280;70343;51.530;5.050;2023-12-20T07:56:17;101583.63;;;5.14;100.00
80892;BME280;70343;51.530;5.050;2023-12-20T07:58:43;101583.34;;;5.17;100.00
80892;BME280;70343;51.530;5.050;2023-12-20T08:01:10;101599.16;;;5.14;100.00
80892;BME280;70343;51.530;5.050;2023-12-20T08:03:36;101592.06;;;5.16;100.00
80892;BME280;70343;51.530;5.050;2023-12-20T08:06:02;101596.13;;;5.19;100.00
80892;BME280;70343;51.530;5.050;2023-12-20T08:08:28;101601.59;;;5.25;100.00
80892;BME280;70343;51.530;5.050;2023-12-20T08:10:53;101602.66;;;5.32;100.00
80892;BME280;70343;51.530;5.050;2023-12-20T08:13:19;101591.25;;;5.35;100.00
80892;BME280;70343;51.530;5.050;2023-12-20T08:15:45;101593.44;;;5.39;100.00
80892;BME280;70343;51.530;5.050;2023-12-20T08:18:10;101603.78;;;5.39;100.00
80892;BME280;70343;51.530;5.050;2023-12-20T08:20:36;101589.63;;;5.43;100.00
80892;BME280;70343;51.530;5.050;2023-12-20T08:23:01;101591.25;;;5.44;100.00
80892;BME280;70343;51.530;5.050;2023-12-20T08:25:27;101605.16;;;5.43;100.00
80892;BME280;70343;51.530;5.050;2023-12-20T08:27:53;101603.50;;;5.42;100.00
80892;BME280;70343;51.530;5.050;2023-12-20T08:30:19;101600.66;;;5.46;100.00
80892;BME280;70343;51.530;5.050;2023-12-20T08:32:48;101615.47;;;5.53;100.00
80892;BME280;70343;51.530;5.050;2023-12-20T08:35:13;101608.38;;;5.65;100.00
80892;BME280;70343;51.530;5.050;2023-12-20T08:37:39;101607.00;;;5.70;100.00
80892;BME280;70343;51.530;5.050;2023-12-20T08:40:05;101608.91;;;5.78;100.00
80892;BME280;70343;51.530;5.050;2023-12-20T08:42:31;101594.06;;;5.80;100.00
80892;BME280;70343;51.530;5.050;2023-12-20T08:44:57;101596.94;;;5.86;100.00
80892;BME280;70343;51.530;5.050;2023-12-20T08:47:24;101595.31;;;5.95;100.00
80892;BME280;70343;51.530;5.050;2023-12-20T08:49:49;101598.16;;;5.92;100.00
80892;BME280;70343;51.530;5.050;2023-12-20T08:52:15;101589.00;;;5.97;100.00
80892;BME280;70343;51.530;5.050;2023-12-20T08:54:40;101591.06;;;5.94;100.00
80892;BME280;70343;51.530;5.050;2023-12-20T08:57:06;101595.84;;;5.98;100.00
80892;BME280;70343;51.530;5.050;2023-12-20T08:59:32;101579.84;;;6.03;100.00
80892;BME280;70343;51.530;5.050;2023-12-20T09:01:58;101586.53;;;6.05;100.00
80892;BME280;70343;51.530;5.050;2023-12-20T09:04:23;101589.81;;;6.07;100.00
80892;BME280;70343;51.530;5.050;2023-12-20T09:06:49;101583.53;;;6.10;100.00
80892;BME280;70343;51.530;5.050;2023-12-20T09:09:15;101594.41;;;6.13;100.00
80892;BME280;70343;51.530;5.050;2023-12-20T09:11:40;101591.41;;;6.18;100.00
80892;BME280;70343;51.530;5.050;2023-12-20T09:14:07;101594.00;;;6.18;100.00
80892;BME280;70343;51.530;5.050;2023-12-20T09:16:33;101584.59;;;6.17;100.00
80892;BME280;70343;51.530;5.050;2023-12-20T09:18:58;101598.72;;;6.22;100.00
80892;BME280;70343;51.530;5.050;2023-12-20T09:21:24;101604.75;;;6.23;100.00
80892;BME280;70343;51.530;5.050;2023-12-20T09:23:49;101605.72;;;6.22;100.00
80892;BME280;70343;51.530;5.050;2023-12-20T09:26:15;101602.16;;;6.23;100.00
80892;BME280;70343;51.530;5.050;2023-12-20T09:28:40;101598.47;;;6.25;100.00
80892;BME280;70343;51.530;5.050;2023-12-20T09:31:06;101579.00;;;6.21;100.00
80892;BME280;70343;51.530;5.050;2023-12-20T09:33:33;101580.75;;;6.21;100.00
80892;BME280;70343;51.530;5.050;2023-12-20T09:35:59;101584.31;;;6.20;100.00
80892;BME280;70343;51.530;5.050;2023-12-20T09:38:24;101586.47;;;6.24;100.00
80892;BME280;70343;51.530;5.050;2023-12-20T09:40:50;101584.84;;;6.23;100.00
80892;BME280;70343;51.530;5.050;2023-12-20T09:43:19;101580.50;;;6.24;100.00
80892;BME280;70343;51.530;5.050;2023-12-20T09:45:47;101586.97;;;6.28;100.00
80892;BME280;70343;51.530;5.050;2023-12-20T09:48:13;101593.81;;;6.29;100.00
80892;BME280;70343;51.530;5.050;2023-12-20T09:50:41;101576.34;;;6.31;100.00
80892;BME280;70343;51.530;5.050;2023-12-20T09:53:09;101581.25;;;6.34;100.00
80892;BME280;70343;51.530;5.050;2023-12-20T09:55:37;101582.47;;;6.40;100.00
80892;BME280;70343;51.530;5.050;2023-12-20T09:58:03;101579.88;;;6.40;100.00
80892;BME280;70343;51.530;5.050;2023-12-20T10:00:29;101578.75;;;6.42;100.00
80892;BME280;70343;51.530;5.050;2023-12-20T10:02:59;101596.63;;;6.45;100.00
80892;BME280;70343;51.530;5.050;2023-12-20T10:05:32;101580.41;;;6.43;100.00
80892;BME280;70343;51.530;5.050;2023-12-20T10:07:58;101588.84;;;6.45;100.00
80892;BME280;70343;51.530;5.050;2023-12-20T10:10:25;101574.91;;;6.46;100.00
80892;BME280;70343;51.530;5.050;2023-12-20T10:13:10;101581.28;;;6.52;100.00
80892;BME280;70343;51.530;5.050;2023-12-20T10:15:37;101580.19;;;6.54;100.00
80892;BME280;70343;51.530;5.050;2023-12-20T10:18:03;101580.88;;;6.56;100.00
80892;BME280;70343;51.530;5.050;2023-12-20T10:20:30;101584.13;;;6.58;100.00
80892;BME280;70343;51.530;5.050;2023-12-20T10:22:57;101583.81;;;6.61;100.00
80892;BME280;70343;51.530;5.050;2023-12-20T10:25:23;101592.56;;;6.60;100.00
80892;BME280;70343;51.530;5.050;2023-12-20T10:27:50;101594.75;;;6.65;100.00
80892;BME280;70343;51.530;5.050;2023-12-20T10:30:33;101588.75;;;6.64;100.00
80892;BME280;70343;51.530;5.050;2023-12-20T10:32:59;101594.97;;;6.71;100.00
80892;BME280;70343;51.530;5.050;2023-12-20T10:35:24;101585.06;;;6.67;100.00
80892;BME280;70343;51.530;5.050;2023-12-20T10:37:54;101574.53;;;6.68;100.00
80892;BME280;70343;51.530;5.050;2023-12-20T10:40:21;101571.78;;;6.70;100.00
80892;BME280;70343;51.530;5.050;2023-12-20T10:42:47;101568.78;;;6.74;100.00
80892;BME280;70343;51.530;5.050;2023-12-20T10:45:12;101568.19;;;6.80;100.00
80892;BME280;70343;51.530;5.050;2023-12-20T10:47:39;101563.28;;;6.77;100.00
80892;BME280;70343;51.530;5.050;2023-12-20T10:50:06;101564.94;;;6.78;100.00
80892;BME280;70343;51.530;5.050;2023-12-20T10:52:32;101558.63;;;6.81;100.00
80892;BME280;70343;51.530;5.050;2023-12-20T10:54:58;101554.56;;;6.78;100.00
80892;BME280;70343;51.530;5.050;2023-12-20T10:57:26;101553.31;;;6.82;100.00
80892;BME280;70343;51.530;5.050;2023-12-20T10:59:54;101561.09;;;6.82;100.00
80892;BME280;70343;51.530;5.050;2023-12-20T11:02:19;101547.16;;;6.83;100.00
80892;BME280;70343;51.530;5.050;2023-12-20T11:07:52;101549.75;;;6.83;100.00
80892;BME280;70343;51.530;5.050;2023-12-20T11:10:26;101547.53;;;6.88;100.00
80892;BME280;70343;51.530;5.050;2023-12-20T11:13:08;101539.75;;;6.88;100.00
80892;BME280;70343;51.530;5.050;2023-12-20T11:15:36;101536.19;;;6.89;100.00
80892;BME280;70343;51.530;5.050;2023-12-20T11:18:03;101535.88;;;6.92;100.00
80892;BME280;70343;51.530;5.050;2023-12-20T11:20:37;101535.88;;;6.92;100.00
80892;BME280;70343;51.530;5.050;2023-12-20T11:23:03;101530.69;;;6.92;100.00
80892;BME280;70343;51.530;5.050;2023-12-20T11:25:29;101540.13;;;6.93;100.00
80892;BME280;70343;51.530;5.050;2023-12-20T11:28:14;101528.50;;;6.97;100.00
80892;BME280;70343;51.530;5.050;2023-12-20T11:30:47;101525.06;;;6.97;100.00
80892;BME280;70343;51.530;5.050;2023-12-20T11:33:15;101517.44;;;6.95;100.00
80892;BME280;70343;51.530;5.050;2023-12-20T11:35:42;101516.34;;;6.98;100.00
80892;BME280;70343;51.530;5.050;2023-12-20T11:38:09;101517.16;;;6.98;100.00
80892;BME280;70343;51.530;5.050;2023-12-20T11:40:36;101511.84;;;7.00;100.00
80892;BME280;70343;51.530;5.050;2023-12-20T11:43:02;101513.97;;;7.04;100.00
80892;BME280;70343;51.530;5.050;2023-12-20T11:45:28;101512.03;;;7.06;100.00
80892;BME280;70343;51.530;5.050;2023-12-20T11:47:54;101507.81;;;7.05;100.00
80892;BME280;70343;51.530;5.050;2023-12-20T11:50:20;101506.56;;;7.09;100.00
80892;BME280;70343;51.530;5.050;2023-12-20T11:52:47;101498.97;;;7.16;100.00
80892;BME280;70343;51.530;5.050;2023-12-20T11:55:13;101499.53;;;7.19;100.00
80892;BME280;70343;51.530;5.050;2023-12-20T11:57:39;101493.34;;;7.20;100.00
80892;BME280;70343;51.530;5.050;2023-12-20T12:00:06;101480.22;;;7.22;100.00
80892;BME280;70343;51.530;5.050;2023-12-20T12:02:38;101490.31;;;7.25;100.00
80892;BME280;70343;51.530;5.050;2023-12-20T12:05:04;101491.78;;;7.28;100.00
80892;BME280;70343;51.530;5.050;2023-12-20T12:07:31;101498.94;;;7.34;100.00
80892;BME280;70343;51.530;5.050;2023-12-20T12:09:57;101478.25;;;7.42;100.00
80892;BME280;70343;51.530;5.050;2023-12-20T12:12:24;101479.41;;;7.47;100.00
80892;BME280;70343;51.530;5.050;2023-12-20T12:14:50;101475.72;;;7.50;100.00
80892;BME280;70343;51.530;5.050;2023-12-20T12:17:16;101475.56;;;7.51;100.00
80892;BME280;70343;51.530;5.050;2023-12-20T12:19:42;101477.66;;;7.48;100.00
80892;BME280;70343;51.530;5.050;2023-12-20T12:22:09;101477.50;;;7.49;100.00
80892;BME280;70343;51.530;5.050;2023-12-20T12:24:48;101475.88;;;7.48;100.00
80892;BME280;70343;51.530;5.050;2023-12-20T12:27:15;101469.56;;;7.51;100.00
80892;BME280;70343;51.530;5.050;2023-12-20T12:29:42;101468.75;;;7.50;100.00
80892;BME280;70343;51.530;5.050;2023-12-20T12:32:25;101459.69;;;7.54;100.00
80892;BME280;70343;51.530;5.050;2023-12-20T12:34:50;101460.84;;;7.60;100.00
80892;BME280;70343;51.530;5.050;2023-12-20T12:37:16;101455.66;;;7.60;100.00
80892;BME280;70343;51.530;5.050;2023-12-20T12:39:41;101454.84;;;7.59;100.00
80892;BME280;70343;51.530;5.050;2023-12-20T12:42:07;101461.91;;;7.75;100.00
80892;BME280;70343;51.530;5.050;2023-12-20T12:44:32;101462.50;;;7.69;100.00
80892;BME280;70343;51.530;5.050;2023-12-20T12:46:58;101455.50;;;7.61;100.00
80892;BME280;70343;51.530;5.050;2023-12-20T12:49:23;101462.19;;;7.64;100.00